Fish Lake Valley, Nevada Weather observations

Data are for 10 minute period ending at time listed.
 Day   Time    Ave.   Ave.  Ave.  Vector   Max.   Stn.    Total    Solar   Ave.  
  of    of     Air    Rel.  Wind   Wind    Wind   Baro.  Precip.   Rad.    Soil  
Year   Day     Temp.  Hum.  Speed  Dir.    Gust   Pres.                    Temp. 
2014   (PST)    F      %     mph   deg.    mph     mb.     in.     W/m2     F    
--------------------------------------------------------------------------------- 
 263    4:00  999.0   999  999.0   999    999.0   999.0   999.00     999    999.0  
 263    5:00  999.0   999  999.0   999    999.0   999.0   999.00     999    999.0  
 263    6:00  999.0   999  999.0   999    999.0   999.0   999.00     999    999.0  
 263    7:00  999.0   999  999.0   999    999.0   999.0   999.00     999    999.0  
 263    8:00  999.0   999  999.0   999    999.0   999.0   999.00     999    999.0  
 263    9:00  999.0   999  999.0   999    999.0   999.0   999.00     999    999.0  
 263   10:00  999.0   999  999.0   999    999.0   999.0   999.00     999    999.0  
 263   11:00  999.0   999  999.0   999    999.0   999.0   999.00     999    999.0  
 263   12:00  999.0   999  999.0   999    999.0   999.0   999.00     999    999.0  
 263   13:00  999.0   999  999.0   999    999.0   999.0   999.00     999    999.0  
 263   14:00  999.0   999  999.0   999    999.0   999.0   999.00     999    999.0  
 263   15:00  999.0   999  999.0   999    999.0   999.0   999.00     999    999.0  
 263   16:00  999.0   999  999.0   999    999.0   999.0   999.00     999    999.0  
 263   17:00  999.0   999  999.0   999    999.0   999.0   999.00     999    999.0  
 263   18:00  999.0   999  999.0   999    999.0   999.0   999.00     999    999.0  
 263   19:00  999.0   999  999.0   999    999.0   999.0   999.00     999    999.0  
 263   20:00  999.0   999  999.0   999    999.0   999.0   999.00     999    999.0  
 263   21:00   57.5    69    1.4    31      4.6   854.0    0.00       0    70.4  
 263   22:00  999.0   999  999.0   999    999.0   999.0   999.00     999    999.0  
 263   23:00   53.1    78    2.6   278      6.9   856.0    0.00       0    69.9  
 264    0:00   56.1    74    4.4   298      9.8   856.0    0.00       0    69.6  
 264    1:00   55.4    75    2.3   303      7.0   856.0    0.00       0    69.2  
 264    2:00   52.8    84    3.6   183      6.4   855.0    0.00       0    68.8  
 264    3:00   51.3    86    2.6   172      6.8   855.0    0.00       0    68.4  

Return to Fish Lake Valley, Nevada graphs page.


Western Regional Climate Center,wrcc@dri.edu